createdAt,value
2018-09-26T00:02:32.356Z,99.90
2018-09-26T00:05:06.558Z,99.90
2018-09-26T00:07:40.646Z,99.90
2018-09-26T00:10:14.621Z,99.90
2018-09-26T00:12:49.479Z,99.90
2018-09-26T00:15:23.523Z,99.90
2018-09-26T00:17:57.576Z,99.90
2018-09-26T00:20:31.573Z,99.90
2018-09-26T00:23:06.319Z,99.90
2018-09-26T00:25:40.364Z,99.90
2018-09-26T00:28:14.530Z,99.90
2018-09-26T00:30:48.671Z,99.90
2018-09-26T00:33:22.942Z,99.90
2018-09-26T00:35:56.946Z,99.90
2018-09-26T00:38:31.038Z,99.90
2018-09-26T00:41:05.286Z,99.90
2018-09-26T00:43:39.314Z,99.90
2018-09-26T00:46:13.438Z,99.90
2018-09-26T00:48:47.461Z,99.90
2018-09-26T00:51:21.557Z,99.90
2018-09-26T00:53:55.641Z,99.90
2018-09-26T00:56:29.778Z,99.90
2018-09-26T00:59:04.526Z,99.90
2018-09-26T01:01:38.671Z,99.90
2018-09-26T01:04:13.548Z,99.90
2018-09-26T01:06:47.653Z,99.90
2018-09-26T01:09:21.666Z,99.90
2018-09-26T01:11:55.697Z,99.90
2018-09-26T01:14:29.793Z,99.90
2018-09-26T01:17:04.482Z,99.90
2018-09-26T01:19:38.598Z,99.90
2018-09-26T01:22:12.741Z,99.90
2018-09-26T01:24:46.889Z,99.90
2018-09-26T01:27:20.786Z,99.90
2018-09-26T01:29:54.921Z,99.90
2018-09-26T01:32:28.837Z,99.90
2018-09-26T01:35:02.854Z,99.90
2018-09-26T01:37:36.978Z,99.90
2018-09-26T01:40:11.867Z,99.90
2018-09-26T01:42:45.899Z,99.90
2018-09-26T01:45:19.888Z,99.90
2018-09-26T01:47:53.900Z,99.90
2018-09-26T01:50:27.998Z,99.90
2018-09-26T01:53:02.115Z,99.90
2018-09-26T01:55:36.179Z,99.90
2018-09-26T01:58:10.238Z,99.90
2018-09-26T02:00:44.346Z,99.90
2018-09-26T02:03:18.431Z,99.90
2018-09-26T02:05:52.502Z,99.90
2018-09-26T02:08:26.547Z,99.90
2018-09-26T02:11:00.706Z,99.90
2018-09-26T02:13:34.786Z,99.90
2018-09-26T02:16:09.716Z,99.90
2018-09-26T02:18:43.763Z,99.90
2018-09-26T02:21:18.606Z,99.90
2018-09-26T02:23:52.534Z,99.90
2018-09-26T02:26:28.552Z,99.90
2018-09-26T02:29:04.649Z,99.90
2018-09-26T02:31:38.853Z,99.90
2018-09-26T02:34:12.775Z,99.90
2018-09-26T02:36:46.854Z,99.90
2018-09-26T02:39:21.005Z,99.90
2018-09-26T02:41:55.095Z,99.90
2018-09-26T02:44:29.255Z,99.90
2018-09-26T02:47:04.071Z,99.90
2018-09-26T02:49:38.145Z,99.90
2018-09-26T02:52:33.793Z,99.90
2018-09-26T02:55:07.714Z,99.90
2018-09-26T03:00:22.400Z,99.90
2018-09-26T03:02:57.125Z,99.90
2018-09-26T03:05:31.096Z,99.90
2018-09-26T03:08:05.148Z,99.90
2018-09-26T03:10:39.981Z,99.90
2018-09-26T03:13:13.913Z,99.90
2018-09-26T03:15:48.002Z,99.90
2018-09-26T03:18:22.838Z,99.90
2018-09-26T03:20:56.962Z,99.90
2018-09-26T03:23:31.007Z,99.90
2018-09-26T03:26:05.757Z,99.90
2018-09-26T03:28:39.918Z,99.90
2018-09-26T03:31:14.570Z,99.90
2018-09-26T03:33:48.703Z,99.90
2018-09-26T03:36:22.729Z,99.90
2018-09-26T03:38:57.542Z,99.90
2018-09-26T03:41:31.623Z,99.90
2018-09-26T03:44:05.694Z,99.90
2018-09-26T03:46:39.646Z,99.90
2018-09-26T03:49:13.852Z,99.90
2018-09-26T03:51:47.955Z,99.90
2018-09-26T03:54:22.818Z,99.90
2018-09-26T03:56:56.949Z,99.90
2018-09-26T03:59:31.064Z,99.90
2018-09-26T04:02:05.052Z,99.90
2018-09-26T04:04:39.148Z,99.90
2018-09-26T04:07:13.268Z,99.90
2018-09-26T04:09:47.368Z,99.90
2018-09-26T04:12:21.440Z,99.90
2018-09-26T04:14:55.597Z,99.90
2018-09-26T04:17:29.705Z,99.90
2018-09-26T04:20:03.624Z,99.90
2018-09-26T04:22:37.665Z,99.90
2018-09-26T04:25:11.644Z,99.90
2018-09-26T04:27:46.591Z,99.90
2018-09-26T04:30:20.608Z,99.90
2018-09-26T04:32:54.921Z,99.90
2018-09-26T04:35:28.965Z,99.90
2018-09-26T04:38:02.933Z,99.90
2018-09-26T04:40:37.002Z,99.90
2018-09-26T04:43:11.131Z,99.90
2018-09-26T04:45:45.187Z,99.90
2018-09-26T04:48:19.275Z,99.90
2018-09-26T04:50:53.460Z,99.90
2018-09-26T04:53:27.528Z,99.90
2018-09-26T04:56:01.675Z,99.90
2018-09-26T04:58:35.797Z,99.90
2018-09-26T05:01:09.878Z,99.90
2018-09-26T05:03:43.859Z,99.90
2018-09-26T05:06:17.981Z,99.90
2018-09-26T05:08:52.172Z,99.90
2018-09-26T05:11:26.219Z,99.90
2018-09-26T05:14:00.218Z,99.90
2018-09-26T05:16:35.055Z,99.90
2018-09-26T05:19:09.103Z,99.90
2018-09-26T05:21:42.987Z,99.90
2018-09-26T05:24:17.022Z,99.90
2018-09-26T05:26:51.202Z,99.90
2018-09-26T05:29:25.222Z,99.90
2018-09-26T05:31:59.306Z,99.90
2018-09-26T05:34:33.337Z,99.90
2018-09-26T05:37:07.374Z,99.90
2018-09-26T05:39:42.030Z,99.90
2018-09-26T05:42:16.052Z,99.90
2018-09-26T05:44:50.252Z,99.90
2018-09-26T05:47:24.352Z,99.90
2018-09-26T05:49:58.403Z,99.90
2018-09-26T05:52:32.421Z,99.90
2018-09-26T05:55:07.904Z,99.90
2018-09-26T05:57:42.006Z,99.90
2018-09-26T06:00:16.010Z,99.90
2018-09-26T06:02:50.858Z,99.90
2018-09-26T06:05:25.030Z,99.90
2018-09-26T06:07:58.964Z,99.90
2018-09-26T06:10:32.845Z,99.90
2018-09-26T06:13:06.975Z,99.90
2018-09-26T06:15:41.066Z,99.90
2018-09-26T06:18:15.107Z,99.90
2018-09-26T06:20:49.035Z,99.90
2018-09-26T06:23:23.030Z,99.90
2018-09-26T06:25:57.155Z,99.90
2018-09-26T06:28:31.302Z,99.60
2018-09-26T06:31:05.334Z,99.80
2018-09-26T06:33:40.278Z,98.00
2018-09-26T06:36:14.319Z,97.90
2018-09-26T06:38:48.332Z,97.30
2018-09-26T06:41:23.078Z,96.30
2018-09-26T06:43:57.929Z,95.60
2018-09-26T06:46:32.116Z,95.60
2018-09-26T06:49:06.219Z,95.40
2018-09-26T06:51:40.386Z,94.90
2018-09-26T06:54:15.345Z,91.70
2018-09-26T06:56:49.882Z,91.80
2018-09-26T06:59:23.865Z,90.90
2018-09-26T07:01:57.978Z,89.50
2018-09-26T07:04:32.100Z,87.90
2018-09-26T07:07:06.244Z,86.30
2018-09-26T07:09:40.255Z,89.20
2018-09-26T07:12:14.266Z,90.40
2018-09-26T07:14:48.333Z,86.70
2018-09-26T07:17:23.220Z,81.10
2018-09-26T07:19:57.232Z,81.10
2018-09-26T07:22:31.338Z,73.40
2018-09-26T07:25:12.958Z,74.10
2018-09-26T07:27:47.039Z,71.50
2018-09-26T07:30:21.058Z,69.40
2018-09-26T07:32:55.171Z,70.10
2018-09-26T07:35:29.206Z,72.10
2018-09-26T07:38:03.318Z,69.10
2018-09-26T07:40:37.293Z,73.20
2018-09-26T07:43:11.430Z,68.60
2018-09-26T07:45:45.416Z,68.20
2018-09-26T07:48:19.380Z,66.10
2018-09-26T07:50:53.420Z,67.20
2018-09-26T07:53:27.485Z,68.40
2018-09-26T07:56:01.591Z,70.80
2018-09-26T07:58:35.703Z,70.90
2018-09-26T08:01:09.765Z,69.20
2018-09-26T08:03:43.822Z,66.50
2018-09-26T08:06:17.942Z,66.80
2018-09-26T08:08:52.014Z,66.90
2018-09-26T08:11:26.210Z,64.30
2018-09-26T08:14:00.304Z,62.00
2018-09-26T08:16:35.229Z,60.60
2018-09-26T08:19:09.346Z,60.60
2018-09-26T08:21:43.445Z,59.20
2018-09-26T08:24:17.594Z,57.50
2018-09-26T08:26:51.818Z,55.10
2018-09-26T08:29:25.961Z,55.80
2018-09-26T08:32:00.823Z,57.10
2018-09-26T08:34:34.936Z,56.70
2018-09-26T08:37:09.001Z,55.80
2018-09-26T08:39:42.961Z,56.80
2018-09-26T08:42:16.921Z,54.10
2018-09-26T08:44:51.076Z,54.20
2018-09-26T08:47:25.033Z,52.70
2018-09-26T08:49:59.865Z,52.30
2018-09-26T08:52:33.873Z,52.30
2018-09-26T08:55:07.998Z,51.40
2018-09-26T08:57:42.074Z,51.80
2018-09-26T09:00:16.298Z,51.00
2018-09-26T09:02:50.365Z,51.30
2018-09-26T09:05:24.466Z,50.60
2018-09-26T09:07:58.598Z,51.10
2018-09-26T09:10:32.636Z,50.50
2018-09-26T09:13:07.440Z,50.80
2018-09-26T09:15:41.520Z,50.60
2018-09-26T09:18:16.410Z,50.90
2018-09-26T09:20:50.413Z,50.90
2018-09-26T09:23:24.511Z,50.60
2018-09-26T09:25:58.600Z,50.80
2018-09-26T09:28:32.606Z,50.90
2018-09-26T09:31:06.641Z,51.20
2018-09-26T09:33:41.506Z,49.90
2018-09-26T09:36:16.325Z,50.70
2018-09-26T09:38:50.250Z,50.10
2018-09-26T09:41:24.293Z,49.80
2018-09-26T09:43:58.472Z,48.90
2018-09-26T09:46:32.557Z,48.80
2018-09-26T09:49:06.689Z,49.00
2018-09-26T09:51:40.793Z,49.00
2018-09-26T09:54:14.919Z,48.30
2018-09-26T09:56:48.942Z,47.70
2018-09-26T09:59:22.914Z,48.00
2018-09-26T10:01:57.001Z,48.40
2018-09-26T10:04:31.768Z,47.30
2018-09-26T10:07:05.856Z,47.40
2018-09-26T10:09:40.701Z,47.60
2018-09-26T10:12:14.817Z,47.40
2018-09-26T10:14:48.969Z,47.50
2018-09-26T10:17:23.157Z,47.90
2018-09-26T10:19:57.107Z,47.90
2018-09-26T10:22:31.781Z,47.90
2018-09-26T10:25:07.023Z,47.80
2018-09-26T10:27:41.004Z,45.70
2018-09-26T10:30:15.053Z,47.10
2018-09-26T10:32:49.767Z,47.20
2018-09-26T10:35:23.850Z,47.10
2018-09-26T10:37:57.862Z,47.30
2018-09-26T10:40:32.650Z,46.30
2018-09-26T10:43:06.765Z,46.30
2018-09-26T10:45:40.788Z,46.00
2018-09-26T10:48:14.717Z,46.50
2018-09-26T10:50:48.630Z,45.80
2018-09-26T10:53:22.746Z,46.10
2018-09-26T10:55:56.849Z,45.70
2018-09-26T10:58:30.875Z,45.40
2018-09-26T11:01:04.889Z,45.60
2018-09-26T11:03:39.526Z,44.70
2018-09-26T11:06:13.574Z,44.50
2018-09-26T11:08:47.524Z,45.50
2018-09-26T11:11:21.636Z,44.30
2018-09-26T11:13:55.557Z,44.50
2018-09-26T11:16:30.416Z,44.40
2018-09-26T11:19:04.491Z,44.30
2018-09-26T11:21:38.582Z,44.10
2018-09-26T11:24:12.801Z,43.60
2018-09-26T11:26:46.894Z,44.00
2018-09-26T11:29:21.090Z,43.00
2018-09-26T11:31:55.872Z,43.10
2018-09-26T11:34:30.647Z,43.90
2018-09-26T11:37:04.645Z,43.90
2018-09-26T11:39:38.777Z,42.20
2018-09-26T11:42:12.887Z,41.60
2018-09-26T11:44:47.704Z,42.70
2018-09-26T11:47:21.782Z,42.70
2018-09-26T11:49:55.889Z,41.20
2018-09-26T11:52:30.043Z,40.80
2018-09-26T11:55:04.955Z,41.20
2018-09-26T11:57:39.356Z,41.20
2018-09-26T12:00:13.426Z,43.50
2018-09-26T12:02:47.386Z,41.40
2018-09-26T12:05:46.350Z,41.80
2018-09-26T12:08:20.534Z,42.10
2018-09-26T12:10:54.571Z,41.80
2018-09-26T12:13:28.686Z,41.20
2018-09-26T12:16:02.676Z,41.80
2018-09-26T12:18:36.906Z,43.20
2018-09-26T12:21:11.606Z,41.20
2018-09-26T12:23:45.735Z,41.10
2018-09-26T12:26:19.843Z,41.40
2018-09-26T12:28:53.865Z,40.40
2018-09-26T12:31:27.969Z,39.90
2018-09-26T12:34:02.114Z,40.50
2018-09-26T12:36:36.091Z,41.20
2018-09-26T12:39:10.216Z,40.10
2018-09-26T12:41:44.146Z,39.70
2018-09-26T12:44:18.201Z,39.70
2018-09-26T12:46:52.257Z,40.10
2018-09-26T12:49:26.374Z,39.60
2018-09-26T12:52:00.467Z,39.60
2018-09-26T12:54:35.410Z,39.30
2018-09-26T12:57:09.522Z,39.30
2018-09-26T12:59:44.457Z,40.20
2018-09-26T13:02:18.468Z,40.60
2018-09-26T13:04:52.534Z,39.40
2018-09-26T13:07:27.418Z,39.80
2018-09-26T13:10:01.537Z,39.70
2018-09-26T13:12:35.703Z,39.10
2018-09-26T13:15:09.907Z,40.40
2018-09-26T13:17:44.778Z,40.00
2018-09-26T13:20:18.872Z,40.50
2018-09-26T13:22:52.972Z,41.00
2018-09-26T13:25:27.067Z,41.20
2018-09-26T13:28:01.219Z,41.00
2018-09-26T13:30:35.245Z,40.60
2018-09-26T13:33:09.321Z,41.50
2018-09-26T13:35:43.331Z,40.60
2018-09-26T13:38:17.509Z,40.20
2018-09-26T13:40:51.614Z,40.90
2018-09-26T13:43:25.739Z,39.30
2018-09-26T13:45:59.719Z,40.20
2018-09-26T13:48:33.696Z,39.60
2018-09-26T13:51:07.709Z,39.70
2018-09-26T13:53:41.822Z,40.70
2018-09-26T13:56:15.969Z,41.40
2018-09-26T13:58:49.994Z,41.50
2018-09-26T14:01:24.140Z,41.60
2018-09-26T14:03:58.171Z,40.50
2018-09-26T14:06:32.151Z,40.60
2018-09-26T14:09:06.259Z,40.70
2018-09-26T14:11:40.531Z,40.40
2018-09-26T14:14:14.683Z,41.00
2018-09-26T14:16:51.838Z,41.10
2018-09-26T14:19:28.882Z,40.60
2018-09-26T14:22:03.839Z,41.50
2018-09-26T14:24:37.993Z,41.50
2018-09-26T14:27:12.206Z,40.50
2018-09-26T14:29:47.445Z,40.80
2018-09-26T14:32:21.733Z,39.90
2018-09-26T14:35:03.628Z,41.40
2018-09-26T14:37:37.688Z,40.40
2018-09-26T14:40:11.855Z,41.00
2018-09-26T14:42:45.914Z,41.50
2018-09-26T14:45:20.130Z,40.40
2018-09-26T14:47:54.245Z,40.00
2018-09-26T14:50:28.632Z,40.40
2018-09-26T14:53:02.589Z,40.90
2018-09-26T14:55:36.736Z,40.40
2018-09-26T14:58:10.989Z,40.40
2018-09-26T15:00:45.067Z,40.60
2018-09-26T15:03:19.846Z,40.10
2018-09-26T15:05:55.010Z,40.00
2018-09-26T15:08:28.952Z,39.90
2018-09-26T15:11:03.053Z,38.90
2018-09-26T15:13:37.201Z,40.00
2018-09-26T15:16:11.312Z,40.20
2018-09-26T15:18:45.335Z,40.90
2018-09-26T15:21:19.470Z,40.00
2018-09-26T15:23:53.542Z,39.80
2018-09-26T15:26:27.665Z,39.80
2018-09-26T15:29:01.654Z,40.10
2018-09-26T15:31:35.698Z,40.90
2018-09-26T15:34:09.853Z,40.30
2018-09-26T15:36:44.020Z,40.20
2018-09-26T15:39:18.124Z,40.10
2018-09-26T15:41:52.226Z,40.50
2018-09-26T15:44:26.474Z,40.80
2018-09-26T15:47:00.611Z,40.00
2018-09-26T15:49:34.764Z,40.40
2018-09-26T15:52:08.943Z,39.70
2018-09-26T15:54:43.137Z,40.30
2018-09-26T15:57:17.311Z,40.40
2018-09-26T15:59:51.470Z,41.20
2018-09-26T16:02:26.432Z,39.80
2018-09-26T16:05:00.491Z,39.70
2018-09-26T16:07:34.488Z,40.10
2018-09-26T16:10:12.252Z,41.00
2018-09-26T16:12:46.230Z,41.00
2018-09-26T16:15:20.461Z,39.80
2018-09-26T16:17:55.236Z,40.40
2018-09-26T16:20:31.317Z,39.20
2018-09-26T16:23:06.398Z,38.40
2018-09-26T16:25:41.074Z,37.60
2018-09-26T16:28:15.163Z,37.90
2018-09-26T16:30:50.030Z,37.50
2018-09-26T16:33:24.081Z,37.40
2018-09-26T16:35:58.083Z,37.30
2018-09-26T16:38:32.778Z,34.80
2018-09-26T16:41:06.886Z,34.70
2018-09-26T16:43:41.725Z,36.20
2018-09-26T16:46:15.845Z,36.10
2018-09-26T16:48:50.681Z,36.70
2018-09-26T16:51:24.760Z,36.70
2018-09-26T16:53:58.878Z,38.20
2018-09-26T16:56:33.703Z,41.30
2018-09-26T16:59:07.824Z,41.30
2018-09-26T17:01:41.938Z,42.40
2018-09-26T17:04:15.857Z,45.20
2018-09-26T17:06:49.873Z,46.50
2018-09-26T17:09:23.972Z,45.70
2018-09-26T17:11:57.988Z,48.60
2018-09-26T17:14:32.022Z,51.00
2018-09-26T17:17:06.186Z,51.30
2018-09-26T17:19:40.464Z,52.20
2018-09-26T17:22:14.766Z,53.60
2018-09-26T17:24:48.665Z,54.80
2018-09-26T17:27:23.449Z,55.80
2018-09-26T17:29:57.498Z,55.10
2018-09-26T17:32:31.509Z,57.70
2018-09-26T17:35:05.477Z,57.90
2018-09-26T17:37:39.622Z,58.50
2018-09-26T17:40:13.787Z,59.00
2018-09-26T17:42:47.862Z,60.80
2018-09-26T17:45:21.949Z,62.00
2018-09-26T17:47:56.061Z,62.20
2018-09-26T17:50:30.170Z,63.10
2018-09-26T17:53:04.253Z,64.00
2018-09-26T17:55:38.302Z,62.80
2018-09-26T17:58:12.371Z,62.90
2018-09-26T18:00:46.435Z,64.30
2018-09-26T18:06:19.770Z,64.90
2018-09-26T18:08:53.729Z,66.10
2018-09-26T18:11:29.033Z,67.40
2018-09-26T18:14:03.103Z,68.20
2018-09-26T18:16:37.750Z,68.00
2018-09-26T18:19:12.102Z,67.40
2018-09-26T18:21:46.110Z,68.20
2018-09-26T18:24:20.249Z,70.30
2018-09-26T18:26:54.331Z,69.00
2018-09-26T18:29:28.434Z,71.10
2018-09-26T18:32:03.226Z,72.10
2018-09-26T18:34:38.016Z,73.60
2018-09-26T18:37:12.110Z,72.90
2018-09-26T18:39:46.031Z,72.90
2018-09-26T18:42:20.052Z,73.50
2018-09-26T18:44:54.173Z,74.30
2018-09-26T18:47:28.870Z,75.60
2018-09-26T18:50:02.906Z,75.60
2018-09-26T18:52:36.994Z,77.00
2018-09-26T18:55:11.085Z,77.40
2018-09-26T18:57:45.181Z,78.50
2018-09-26T19:00:19.258Z,79.60
2018-09-26T19:02:53.338Z,79.80
2018-09-26T19:05:27.361Z,80.90
2018-09-26T19:08:01.514Z,80.60
2018-09-26T19:10:36.570Z,80.70
2018-09-26T19:13:13.042Z,80.30
2018-09-26T19:15:46.990Z,80.20
2018-09-26T19:18:21.012Z,82.00
2018-09-26T19:20:55.128Z,82.20
2018-09-26T19:23:29.086Z,82.30
2018-09-26T19:26:03.162Z,84.20
2018-09-26T19:28:41.190Z,82.80
2018-09-26T19:31:15.216Z,84.00
2018-09-26T19:33:49.370Z,83.60
2018-09-26T19:36:24.225Z,86.00
2018-09-26T19:38:59.771Z,86.00
2018-09-26T19:41:33.841Z,86.00
2018-09-26T19:47:05.466Z,86.70
2018-09-26T19:49:40.886Z,87.40
2018-09-26T19:52:15.938Z,88.50
2018-09-26T19:54:49.936Z,88.50
2018-09-26T19:57:23.944Z,87.50
2018-09-26T19:59:57.997Z,87.00
2018-09-26T20:02:32.029Z,90.10
2018-09-26T20:05:06.065Z,89.50
2018-09-26T20:07:40.114Z,89.80
2018-09-26T20:10:14.230Z,90.20
2018-09-26T20:12:48.271Z,90.00
2018-09-26T20:15:22.403Z,89.60
2018-09-26T20:17:56.498Z,90.30
2018-09-26T20:20:30.685Z,91.00
2018-09-26T20:23:04.729Z,91.70
2018-09-26T20:25:38.735Z,91.80
2018-09-26T20:28:13.570Z,92.00
2018-09-26T20:30:47.546Z,92.00
2018-09-26T20:33:21.607Z,92.20
2018-09-26T20:35:55.705Z,92.60
2018-09-26T20:38:29.750Z,92.40
2018-09-26T20:41:04.546Z,93.40
2018-09-26T20:43:38.420Z,93.40
2018-09-26T20:46:12.265Z,93.70
2018-09-26T20:48:46.990Z,94.00
2018-09-26T20:51:20.869Z,94.00
2018-09-26T20:53:55.629Z,94.10
2018-09-26T20:56:30.364Z,94.30
2018-09-26T20:59:05.217Z,94.50
2018-09-26T21:01:39.333Z,94.50
2018-09-26T21:04:13.414Z,94.60
2018-09-26T21:06:47.466Z,94.10
2018-09-26T21:09:21.532Z,94.70
2018-09-26T21:11:55.577Z,95.00
2018-09-26T21:14:31.160Z,95.30
2018-09-26T21:17:05.217Z,95.80
2018-09-26T21:19:39.228Z,95.80
2018-09-26T21:22:13.346Z,96.00
2018-09-26T21:24:47.477Z,96.40
2018-09-26T21:27:21.574Z,96.70
2018-09-26T21:29:56.386Z,96.60
2018-09-26T21:32:31.114Z,96.60
2018-09-26T21:35:05.278Z,97.70
2018-09-26T21:37:39.340Z,98.20
2018-09-26T21:40:14.177Z,98.30
2018-09-26T21:42:48.119Z,98.20
2018-09-26T21:45:23.184Z,98.30
2018-09-26T21:47:57.137Z,98.40
2018-09-26T21:50:31.239Z,98.10
2018-09-26T21:53:05.353Z,98.30
2018-09-26T21:55:39.437Z,98.60
2018-09-26T21:58:13.294Z,99.20
2018-09-26T22:00:48.144Z,98.80
2018-09-26T22:03:22.271Z,98.80
2018-09-26T22:05:56.437Z,99.00
2018-09-26T22:08:30.601Z,99.90
2018-09-26T22:11:04.776Z,99.70
2018-09-26T22:13:38.846Z,99.90
2018-09-26T22:16:12.870Z,99.90
2018-09-26T22:18:46.834Z,99.90
2018-09-26T22:21:21.773Z,99.90
2018-09-26T22:23:55.871Z,99.90
2018-09-26T22:26:30.034Z,99.90
2018-09-26T22:29:04.118Z,99.90
2018-09-26T22:31:39.066Z,99.90
2018-09-26T22:34:13.155Z,99.90
2018-09-26T22:36:47.059Z,99.90
2018-09-26T22:39:21.055Z,99.90
2018-09-26T22:41:55.064Z,99.90
2018-09-26T22:44:29.222Z,99.90
2018-09-26T22:47:03.301Z,99.90
2018-09-26T22:49:37.365Z,99.90
2018-09-26T22:52:11.478Z,99.90
2018-09-26T22:54:45.449Z,99.90
2018-09-26T22:57:19.551Z,99.90
2018-09-26T22:59:53.594Z,99.90
2018-09-26T23:02:27.660Z,99.90
2018-09-26T23:05:01.727Z,99.90
2018-09-26T23:07:35.815Z,99.90
2018-09-26T23:10:09.904Z,99.90
2018-09-26T23:12:43.985Z,99.90
2018-09-26T23:15:17.984Z,99.90
2018-09-26T23:17:51.920Z,99.90
2018-09-26T23:20:26.730Z,99.90
2018-09-26T23:23:01.426Z,99.90
2018-09-26T23:25:35.514Z,99.90
2018-09-26T23:28:10.079Z,99.90
2018-09-26T23:30:44.029Z,99.90
2018-09-26T23:33:18.213Z,99.90
2018-09-26T23:35:52.162Z,99.90
2018-09-26T23:38:26.549Z,99.90
2018-09-26T23:41:00.692Z,99.90
2018-09-26T23:43:34.886Z,99.90
2018-09-26T23:46:09.051Z,99.90
2018-09-26T23:48:43.077Z,99.90
2018-09-26T23:51:17.094Z,99.90
2018-09-26T23:53:51.011Z,99.90
2018-09-26T23:56:25.131Z,99.90
2018-09-26T23:58:59.329Z,99.90
